createdAt,value
2018-12-29T00:00:05.688Z,3.94
2018-12-29T00:01:05.659Z,3.98
2018-12-29T00:02:05.628Z,3.94
2018-12-29T00:03:06.351Z,4.01
2018-12-29T00:04:05.569Z,4.01
2018-12-29T00:05:05.539Z,4.00
2018-12-29T00:06:05.509Z,3.94
2018-12-29T00:07:05.947Z,3.85
2018-12-29T00:08:05.451Z,3.86
2018-12-29T00:09:05.422Z,3.85
2018-12-29T00:10:05.395Z,3.88
2018-12-29T00:11:05.362Z,3.79
2018-12-29T00:12:05.332Z,3.85
2018-12-29T00:13:05.303Z,3.89
2018-12-29T00:14:06.773Z,3.88
2018-12-29T00:15:05.243Z,3.88
2018-12-29T00:16:05.219Z,3.80
2018-12-29T00:17:05.184Z,3.80
2018-12-29T00:18:05.154Z,3.83
2018-12-29T00:19:05.125Z,3.85
2018-12-29T00:20:05.096Z,3.83
2018-12-29T00:21:05.066Z,3.83
2018-12-29T00:22:05.037Z,3.79
2018-12-29T00:23:05.006Z,3.86
2018-12-29T00:24:04.978Z,3.92
2018-12-29T00:25:04.948Z,3.86
2018-12-29T00:26:04.918Z,3.83
2018-12-29T00:27:04.888Z,3.86
2018-12-29T00:28:04.860Z,3.85
2018-12-29T00:29:04.831Z,3.86
2018-12-29T00:30:04.799Z,3.88
2018-12-29T00:31:04.769Z,3.89
2018-12-29T00:32:04.740Z,3.94
2018-12-29T00:33:04.711Z,3.89
2018-12-29T00:34:04.680Z,3.90
2018-12-29T00:35:04.651Z,3.96
2018-12-29T00:36:05.381Z,3.94
2018-12-29T00:37:04.592Z,3.98
2018-12-29T00:38:04.565Z,4.00
2018-12-29T00:39:04.533Z,3.96
2018-12-29T00:40:04.507Z,3.86
2018-12-29T00:41:04.474Z,3.86
2018-12-29T00:42:04.447Z,3.89
2018-12-29T00:43:04.416Z,3.89
2018-12-29T00:44:04.386Z,3.86
2018-12-29T00:45:04.356Z,3.88
2018-12-29T00:46:04.327Z,3.86
2018-12-29T00:47:04.298Z,3.85
2018-12-29T00:48:04.268Z,3.78
2018-12-29T00:49:04.241Z,3.83
2018-12-29T00:50:04.210Z,3.79
2018-12-29T00:51:04.180Z,3.88
2018-12-29T00:52:04.152Z,3.85
2018-12-29T00:53:04.121Z,3.92
2018-12-29T00:54:04.090Z,3.85
2018-12-29T00:55:04.063Z,3.86
2018-12-29T00:56:04.033Z,3.90
2018-12-29T00:57:04.003Z,3.89
2018-12-29T00:58:03.973Z,4.03
2018-12-29T00:59:03.945Z,3.92
2018-12-29T01:00:03.915Z,3.89
2018-12-29T01:01:03.886Z,3.83
2018-12-29T01:02:03.857Z,3.96
2018-12-29T01:03:03.827Z,3.90
2018-12-29T01:04:03.799Z,3.88
2018-12-29T01:05:03.767Z,3.82
2018-12-29T01:06:03.738Z,3.75
2018-12-29T01:07:03.712Z,3.78
2018-12-29T01:08:03.683Z,3.71
2018-12-29T01:09:03.650Z,3.72
2018-12-29T01:10:03.620Z,3.72
2018-12-29T01:11:03.591Z,3.71
2018-12-29T01:12:03.561Z,3.78
2018-12-29T01:13:03.598Z,3.89
2018-12-29T01:14:03.502Z,3.79
2018-12-29T01:15:09.682Z,3.86
2018-12-29T01:16:03.443Z,3.86
2018-12-29T01:17:03.414Z,3.85
2018-12-29T01:18:03.384Z,3.92
2018-12-29T01:19:03.354Z,3.92
2018-12-29T01:20:03.327Z,3.92
2018-12-29T01:21:03.296Z,3.85
2018-12-29T01:22:03.269Z,3.90
2018-12-29T01:23:03.237Z,3.90
2018-12-29T01:24:03.207Z,3.85
2018-12-29T01:25:03.178Z,3.82
2018-12-29T01:26:03.212Z,3.88
2018-12-29T01:27:03.119Z,3.75
2018-12-29T01:28:03.090Z,3.80
2018-12-29T01:29:03.060Z,3.83
2018-12-29T01:30:03.030Z,3.82
2018-12-29T01:31:03.004Z,3.82
2018-12-29T01:32:02.972Z,3.80
2018-12-29T01:33:02.943Z,3.86
2018-12-29T01:34:02.914Z,3.85
2018-12-29T01:35:02.884Z,3.86
2018-12-29T01:36:02.854Z,3.92
2018-12-29T01:37:02.824Z,3.89
2018-12-29T01:38:02.795Z,3.82
2018-12-29T01:39:02.766Z,3.86
2018-12-29T01:40:02.737Z,3.78
2018-12-29T01:41:02.707Z,3.88
2018-12-29T01:42:02.677Z,3.82
2018-12-29T01:43:02.649Z,3.92
2018-12-29T01:44:02.620Z,3.88
2018-12-29T01:45:02.594Z,3.94
2018-12-29T01:46:02.559Z,3.89
2018-12-29T01:47:02.531Z,3.86
2018-12-29T01:48:02.501Z,3.78
2018-12-29T01:49:02.473Z,3.89
2018-12-29T01:50:02.443Z,3.89
2018-12-29T01:51:02.413Z,3.89
2018-12-29T01:52:02.383Z,3.96
2018-12-29T01:53:02.355Z,3.92
2018-12-29T01:54:02.323Z,3.88
2018-12-29T01:55:02.296Z,3.86
2018-12-29T01:56:02.267Z,3.80
2018-12-29T01:57:02.237Z,3.85
2018-12-29T01:58:02.211Z,3.72
2018-12-29T01:59:02.186Z,3.79
2018-12-29T02:00:02.151Z,3.70
2018-12-29T02:01:02.120Z,3.75
2018-12-29T02:02:02.090Z,3.67
2018-12-29T02:03:02.132Z,3.76
2018-12-29T02:04:02.033Z,3.71
2018-12-29T02:05:02.008Z,3.65
2018-12-29T02:06:01.973Z,3.70
2018-12-29T02:07:01.944Z,3.62
2018-12-29T02:08:01.916Z,3.64
2018-12-29T02:09:01.886Z,3.68
2018-12-29T02:10:01.854Z,3.71
2018-12-29T02:11:01.829Z,3.75
2018-12-29T02:12:01.797Z,3.70
2018-12-29T02:13:01.769Z,3.65
2018-12-29T02:14:01.742Z,3.62
2018-12-29T02:15:01.708Z,3.67
2018-12-29T02:16:01.681Z,3.72
2018-12-29T02:17:01.650Z,3.62
2018-12-29T02:18:01.622Z,3.61
2018-12-29T02:19:01.594Z,3.67
2018-12-29T02:20:01.562Z,3.72
2018-12-29T02:21:01.536Z,3.71
2018-12-29T02:22:02.255Z,3.68
2018-12-29T02:23:01.474Z,3.71
2018-12-29T02:24:01.444Z,3.78
2018-12-29T02:25:01.415Z,3.78
2018-12-29T02:26:01.385Z,3.68
2018-12-29T02:27:01.355Z,3.61
2018-12-29T02:28:01.326Z,3.72
2018-12-29T02:29:01.297Z,3.65
2018-12-29T02:30:01.269Z,3.54
2018-12-29T02:31:01.239Z,3.60
2018-12-29T02:32:01.208Z,3.71
2018-12-29T02:33:01.179Z,3.80
2018-12-29T02:34:01.151Z,3.75
2018-12-29T02:35:01.120Z,3.68
2018-12-29T02:36:01.092Z,3.82
2018-12-29T02:37:01.061Z,3.75
2018-12-29T02:38:01.032Z,3.79
2018-12-29T02:39:01.002Z,3.83
2018-12-29T02:40:00.977Z,3.86
2018-12-29T02:41:00.942Z,3.92
2018-12-29T02:42:00.915Z,3.85
2018-12-29T02:43:00.886Z,3.89
2018-12-29T02:44:00.856Z,3.92
2018-12-29T02:45:00.826Z,3.86
2018-12-29T02:46:00.801Z,3.94
2018-12-29T02:47:00.766Z,3.89
2018-12-29T02:48:00.737Z,3.89
2018-12-29T02:49:00.722Z,3.86
2018-12-29T02:50:00.680Z,3.92
2018-12-29T02:51:00.649Z,3.79
2018-12-29T02:52:00.620Z,3.82
2018-12-29T02:53:01.163Z,3.80
2018-12-29T02:54:00.561Z,3.82
2018-12-29T02:55:00.531Z,3.79
2018-12-29T02:56:00.502Z,3.68
2018-12-29T02:57:00.472Z,3.78
2018-12-29T02:58:00.443Z,3.75
2018-12-29T02:59:00.413Z,3.76
2018-12-29T03:00:00.387Z,3.71
2018-12-29T03:01:00.358Z,3.80
2018-12-29T03:02:00.330Z,3.79
2018-12-29T03:03:00.297Z,3.78
2018-12-29T03:04:00.266Z,3.78
2018-12-29T03:05:00.239Z,3.75
2018-12-29T03:06:00.209Z,3.85
2018-12-29T03:07:00.179Z,3.82
2018-12-29T03:08:00.152Z,3.75
2018-12-29T03:09:00.119Z,3.82
2018-12-29T03:10:00.132Z,3.78
2018-12-29T03:11:00.063Z,3.88
2018-12-29T03:12:00.031Z,3.67
2018-12-29T03:13:00.002Z,3.85
2018-12-29T03:13:59.972Z,3.83
2018-12-29T03:14:59.943Z,3.86
2018-12-29T03:16:02.166Z,3.86
2018-12-29T03:16:59.885Z,3.86
2018-12-29T03:17:59.860Z,3.86
2018-12-29T03:18:59.823Z,3.83
2018-12-29T03:19:59.796Z,3.83
2018-12-29T03:20:59.767Z,3.80
2018-12-29T03:21:59.742Z,3.75
2018-12-29T03:22:59.710Z,3.80
2018-12-29T03:23:59.681Z,3.78
2018-12-29T03:24:59.650Z,3.76
2018-12-29T03:25:59.622Z,3.80
2018-12-29T03:26:59.590Z,3.76
2018-12-29T03:27:59.566Z,3.72
2018-12-29T03:28:59.532Z,3.75
2018-12-29T03:29:59.504Z,3.79
2018-12-29T03:30:59.474Z,3.75
2018-12-29T03:31:59.445Z,3.71
2018-12-29T03:32:59.416Z,3.71
2018-12-29T03:33:59.384Z,3.78
2018-12-29T03:34:59.355Z,3.72
2018-12-29T03:35:59.327Z,3.79
2018-12-29T03:36:59.297Z,3.71
2018-12-29T03:37:59.266Z,3.72
2018-12-29T03:38:59.238Z,3.76
2018-12-29T03:39:59.209Z,3.70
2018-12-29T03:40:59.178Z,3.83
2018-12-29T03:41:59.148Z,3.76
2018-12-29T03:42:59.119Z,3.82
2018-12-29T03:43:59.090Z,3.78
2018-12-29T03:44:59.062Z,3.70
2018-12-29T03:45:59.031Z,3.75
2018-12-29T03:46:59.002Z,3.75
2018-12-29T03:47:58.974Z,3.75
2018-12-29T03:48:58.944Z,3.83
2018-12-29T03:49:58.913Z,3.78
2018-12-29T03:50:58.885Z,3.70
2018-12-29T03:51:58.857Z,3.76
2018-12-29T03:52:58.826Z,3.72
2018-12-29T03:53:58.796Z,3.79
2018-12-29T03:54:58.767Z,3.78
2018-12-29T03:55:58.737Z,3.76
2018-12-29T03:56:58.708Z,3.75
2018-12-29T03:57:58.679Z,3.79
2018-12-29T03:58:58.671Z,3.72
2018-12-29T03:59:58.621Z,3.78
2018-12-29T04:00:58.591Z,3.75
2018-12-29T04:01:58.561Z,3.71
2018-12-29T04:02:58.537Z,3.70
2018-12-29T04:03:58.503Z,3.72
2018-12-29T04:04:59.975Z,3.68
2018-12-29T04:05:58.499Z,3.57
2018-12-29T04:06:58.416Z,3.46
2018-12-29T04:07:58.386Z,3.57
2018-12-29T04:08:58.358Z,3.49
2018-12-29T04:09:58.327Z,3.57
2018-12-29T04:10:58.297Z,3.54
2018-12-29T04:11:58.270Z,3.49
2018-12-29T04:12:58.239Z,3.50
2018-12-29T04:13:58.208Z,3.44
2018-12-29T04:14:58.179Z,3.54
2018-12-29T04:15:58.538Z,3.57
2018-12-29T04:16:58.123Z,3.53
2018-12-29T04:17:58.092Z,3.50
2018-12-29T04:18:58.062Z,3.47
2018-12-29T04:19:58.032Z,3.40
2018-12-29T04:20:58.002Z,3.57
2018-12-29T04:21:57.973Z,3.53
2018-12-29T04:22:57.943Z,3.50
2018-12-29T04:23:57.915Z,3.52
2018-12-29T04:24:57.885Z,3.54
2018-12-29T04:25:57.855Z,3.44
2018-12-29T04:26:57.826Z,3.40
2018-12-29T04:27:57.798Z,3.49
2018-12-29T04:28:57.767Z,3.42
2018-12-29T04:29:57.737Z,3.46
2018-12-29T04:30:57.708Z,3.52
2018-12-29T04:31:57.679Z,3.42
2018-12-29T04:32:57.650Z,3.31
2018-12-29T04:33:57.621Z,3.23
2018-12-29T04:34:57.590Z,3.24
2018-12-29T04:35:57.561Z,3.34
2018-12-29T04:36:57.532Z,3.30
2018-12-29T04:37:57.501Z,3.39
2018-12-29T04:38:57.475Z,3.43
2018-12-29T04:39:57.443Z,3.39
2018-12-29T04:40:57.414Z,3.40
2018-12-29T04:41:57.383Z,3.43
2018-12-29T04:42:57.357Z,3.40
2018-12-29T04:43:57.324Z,3.57
2018-12-29T04:44:57.296Z,3.47
2018-12-29T04:45:57.265Z,3.44
2018-12-29T04:46:57.236Z,3.43
2018-12-29T04:47:57.207Z,3.42
2018-12-29T04:48:57.178Z,3.34
2018-12-29T04:49:57.150Z,3.34
2018-12-29T04:50:57.118Z,3.33
2018-12-29T04:51:57.089Z,3.34
2018-12-29T04:52:57.059Z,3.28
2018-12-29T04:53:57.030Z,3.18
2018-12-29T04:54:57.002Z,3.27
2018-12-29T04:55:56.972Z,3.39
2018-12-29T04:56:56.943Z,3.36
2018-12-29T04:57:56.912Z,3.40
2018-12-29T04:58:56.885Z,3.33
2018-12-29T04:59:56.853Z,3.42
2018-12-29T05:00:56.824Z,3.54
2018-12-29T05:01:56.793Z,3.50
2018-12-29T05:02:56.764Z,3.50
2018-12-29T05:03:56.734Z,3.61
2018-12-29T05:04:56.705Z,3.54
2018-12-29T05:05:56.675Z,3.58
2018-12-29T05:06:56.645Z,3.57
2018-12-29T05:07:56.618Z,3.52
2018-12-29T05:09:01.841Z,3.44
2018-12-29T05:09:56.560Z,3.54
2018-12-29T05:10:56.527Z,3.39
2018-12-29T05:11:56.498Z,3.36
2018-12-29T05:12:56.468Z,3.33
2018-12-29T05:13:56.439Z,3.40
2018-12-29T05:14:56.408Z,3.44
2018-12-29T05:15:56.379Z,3.47
2018-12-29T05:16:56.353Z,3.33
2018-12-29T05:17:56.320Z,3.39
2018-12-29T05:18:56.291Z,3.28
2018-12-29T05:19:56.262Z,3.27
2018-12-29T05:20:56.233Z,3.27
2018-12-29T05:21:56.203Z,3.28
2018-12-29T05:22:56.173Z,3.36
2018-12-29T05:23:56.143Z,3.28
2018-12-29T05:24:56.114Z,3.23
2018-12-29T05:25:56.083Z,3.23
2018-12-29T05:26:56.057Z,3.24
2018-12-29T05:27:56.024Z,3.15
2018-12-29T05:28:55.994Z,3.21
2018-12-29T05:29:55.967Z,3.18
2018-12-29T05:30:55.935Z,3.07
2018-12-29T05:31:55.905Z,3.21
2018-12-29T05:32:55.876Z,3.16
2018-12-29T05:33:55.845Z,3.13
2018-12-29T05:34:55.819Z,3.15
2018-12-29T05:35:55.786Z,3.18
2018-12-29T05:36:55.757Z,3.23
2018-12-29T05:37:55.726Z,3.30
2018-12-29T05:38:55.697Z,3.31
2018-12-29T05:39:55.667Z,3.28
2018-12-29T05:40:55.639Z,3.28
2018-12-29T05:41:56.358Z,3.25
2018-12-29T05:42:55.577Z,3.25
2018-12-29T05:43:55.548Z,3.20
2018-12-29T05:44:55.518Z,3.21
2018-12-29T05:45:55.488Z,3.13
2018-12-29T05:46:55.462Z,3.13
2018-12-29T05:47:55.429Z,3.05
2018-12-29T05:48:55.399Z,3.05
2018-12-29T05:49:55.368Z,3.13
2018-12-29T05:50:55.339Z,3.21
2018-12-29T05:51:55.313Z,3.20
2018-12-29T05:52:56.030Z,3.15
2018-12-29T05:53:55.249Z,3.20
2018-12-29T05:54:55.226Z,3.15
2018-12-29T05:55:55.193Z,3.21
2018-12-29T05:56:55.166Z,3.23
2018-12-29T05:57:55.130Z,3.21
2018-12-29T05:58:55.100Z,3.18
2018-12-29T05:59:55.072Z,3.25
2018-12-29T06:00:55.043Z,3.20
2018-12-29T06:01:55.011Z,3.24
2018-12-29T06:02:54.982Z,3.21
2018-12-29T06:03:55.704Z,3.20
2018-12-29T06:04:54.923Z,3.21
2018-12-29T06:05:54.893Z,3.21
2018-12-29T06:06:54.863Z,3.20
2018-12-29T06:07:54.834Z,3.12
2018-12-29T06:08:54.805Z,3.18
2018-12-29T06:09:54.774Z,3.23
2018-12-29T06:10:54.744Z,3.21
2018-12-29T06:11:54.715Z,3.20
2018-12-29T06:12:54.685Z,3.23
2018-12-29T06:13:54.655Z,3.24
2018-12-29T06:14:54.627Z,3.28
2018-12-29T06:15:54.596Z,3.20
2018-12-29T06:16:54.566Z,3.21
2018-12-29T06:17:54.541Z,3.31
2018-12-29T06:18:54.507Z,3.24
2018-12-29T06:19:54.477Z,3.13
2018-12-29T06:20:54.449Z,3.13
2018-12-29T06:21:54.417Z,3.18
2018-12-29T06:22:54.388Z,3.18
2018-12-29T06:23:54.358Z,3.30
2018-12-29T06:24:54.329Z,3.28
2018-12-29T06:25:54.300Z,3.39
2018-12-29T06:26:54.269Z,3.33
2018-12-29T06:27:54.239Z,3.31
2018-12-29T06:28:54.211Z,3.43
2018-12-29T06:29:55.681Z,3.36
2018-12-29T06:30:54.152Z,3.39
2018-12-29T06:31:54.121Z,3.39
2018-12-29T06:32:54.093Z,3.47
2018-12-29T06:33:54.061Z,3.39
2018-12-29T06:34:54.032Z,3.43
2018-12-29T06:35:54.003Z,3.39
2018-12-29T06:36:53.973Z,3.52
2018-12-29T06:37:53.943Z,3.43
2018-12-29T06:38:53.914Z,3.42
2018-12-29T06:39:53.885Z,3.34
2018-12-29T06:40:53.855Z,3.42
2018-12-29T06:41:53.825Z,3.42
2018-12-29T06:42:53.795Z,3.43
2018-12-29T06:43:53.766Z,3.40
2018-12-29T06:44:53.742Z,3.46
2018-12-29T06:45:53.706Z,3.50
2018-12-29T06:46:53.678Z,3.58
2018-12-29T06:47:53.648Z,3.54
2018-12-29T06:48:53.623Z,3.62
2018-12-29T06:49:53.588Z,3.60
2018-12-29T06:50:53.560Z,3.53
2018-12-29T06:51:53.531Z,3.62
2018-12-29T06:52:53.501Z,3.57
2018-12-29T06:53:53.470Z,3.60
2018-12-29T06:54:53.442Z,3.54
2018-12-29T06:55:53.412Z,3.62
2018-12-29T06:56:53.385Z,3.60
2018-12-29T06:57:53.352Z,3.57
2018-12-29T06:58:53.323Z,3.58
2018-12-29T06:59:53.295Z,3.60
2018-12-29T07:00:53.265Z,3.52
2018-12-29T07:01:53.237Z,3.60
2018-12-29T07:02:53.206Z,3.57
2018-12-29T07:03:53.180Z,3.54
2018-12-29T07:04:53.148Z,3.65
2018-12-29T07:05:53.118Z,3.57
2018-12-29T07:06:53.093Z,3.62
2018-12-29T07:07:53.059Z,3.64
2018-12-29T07:08:53.030Z,3.71
2018-12-29T07:09:53.004Z,3.57
2018-12-29T07:10:52.972Z,3.65
2018-12-29T07:11:52.942Z,3.53
2018-12-29T07:12:52.914Z,3.62
2018-12-29T07:13:52.884Z,3.58
2018-12-29T07:14:52.855Z,3.52
2018-12-29T07:15:52.826Z,3.54
2018-12-29T07:16:52.797Z,3.53
2018-12-29T07:17:52.768Z,3.62
2018-12-29T07:18:52.737Z,3.61
2018-12-29T07:19:52.708Z,3.49
2018-12-29T07:20:52.681Z,3.58
2018-12-29T07:21:52.651Z,3.54
2018-12-29T07:22:52.620Z,3.61
2018-12-29T07:23:52.590Z,3.53
2018-12-29T07:24:52.562Z,3.50
2018-12-29T07:25:52.532Z,3.58
2018-12-29T07:26:52.502Z,3.60
2018-12-29T07:27:52.474Z,3.67
2018-12-29T07:28:52.444Z,3.70
2018-12-29T07:29:52.414Z,3.67
2018-12-29T07:30:52.385Z,3.78
2018-12-29T07:31:52.356Z,3.71
2018-12-29T07:32:52.327Z,3.72
2018-12-29T07:33:52.298Z,3.72
2018-12-29T07:34:52.267Z,3.72
2018-12-29T07:35:52.239Z,3.72
2018-12-29T07:36:52.211Z,3.67
2018-12-29T07:37:52.181Z,3.72
2018-12-29T07:38:52.151Z,3.70
2018-12-29T07:39:52.122Z,3.50
2018-12-29T07:40:52.094Z,3.61
2018-12-29T07:41:52.063Z,3.50
2018-12-29T07:42:52.034Z,3.61
2018-12-29T07:43:52.005Z,3.62
2018-12-29T07:44:51.976Z,3.57
2018-12-29T07:45:51.946Z,3.53
2018-12-29T07:46:51.917Z,3.58
2018-12-29T07:47:51.888Z,3.49
2018-12-29T07:48:51.859Z,3.33
2018-12-29T07:49:51.828Z,3.34
2018-12-29T07:50:51.803Z,3.42
2018-12-29T07:51:51.773Z,3.53
2018-12-29T07:52:51.741Z,3.52
2018-12-29T07:53:51.713Z,3.46
2018-12-29T07:54:51.681Z,3.57
2018-12-29T07:55:51.654Z,3.64
2018-12-29T07:56:51.624Z,3.54
2018-12-29T07:57:51.593Z,3.61
2018-12-29T07:58:51.565Z,3.64
2018-12-29T07:59:51.535Z,3.60
2018-12-29T08:00:51.506Z,3.70
2018-12-29T08:01:51.475Z,3.64
2018-12-29T08:02:51.446Z,3.65
2018-12-29T08:03:51.417Z,3.60
2018-12-29T08:04:51.390Z,3.65
2018-12-29T08:05:51.358Z,3.64
2018-12-29T08:06:51.328Z,3.75
2018-12-29T08:07:51.299Z,3.76
2018-12-29T08:08:51.271Z,3.64
2018-12-29T08:09:51.240Z,3.71
2018-12-29T08:10:51.212Z,3.61
2018-12-29T08:11:51.182Z,3.58
2018-12-29T08:12:51.153Z,3.60
2018-12-29T08:13:51.123Z,3.60
2018-12-29T08:14:51.093Z,3.54
2018-12-29T08:15:51.064Z,3.67
2018-12-29T08:16:56.832Z,3.65
2018-12-29T08:17:51.005Z,3.61
2018-12-29T08:18:50.984Z,3.61
2018-12-29T08:19:50.948Z,3.60
2018-12-29T08:20:50.918Z,3.61
2018-12-29T08:21:50.888Z,3.61
2018-12-29T08:22:50.859Z,3.54
2018-12-29T08:23:50.830Z,3.47
2018-12-29T08:24:50.801Z,3.54
2018-12-29T08:25:50.771Z,3.49
2018-12-29T08:26:50.741Z,3.36
2018-12-29T08:27:50.715Z,3.50
2018-12-29T08:28:50.683Z,3.52
2018-12-29T08:29:50.654Z,3.60
2018-12-29T08:30:50.624Z,3.67
2018-12-29T08:31:50.594Z,3.65
2018-12-29T08:32:50.566Z,3.78
2018-12-29T08:33:50.536Z,3.75
2018-12-29T08:34:50.507Z,3.68
2018-12-29T08:35:50.478Z,3.76
2018-12-29T08:36:50.449Z,3.80
2018-12-29T08:37:50.419Z,3.70
2018-12-29T08:38:50.391Z,3.72
2018-12-29T08:39:50.361Z,3.70
2018-12-29T08:40:50.333Z,3.75
2018-12-29T08:41:50.302Z,3.83
2018-12-29T08:42:50.273Z,3.72
2018-12-29T08:43:50.244Z,3.75
2018-12-29T08:44:50.215Z,3.80
2018-12-29T08:45:50.185Z,3.75
2018-12-29T08:46:50.156Z,3.67
2018-12-29T08:47:50.126Z,3.75
2018-12-29T08:48:50.098Z,3.75
2018-12-29T08:49:50.068Z,3.79
2018-12-29T08:50:50.039Z,3.75
2018-12-29T08:51:50.010Z,3.71
2018-12-29T08:52:49.981Z,3.76
2018-12-29T08:53:49.953Z,3.80
2018-12-29T08:54:49.923Z,3.80
2018-12-29T08:55:50.646Z,3.72
2018-12-29T08:56:49.869Z,3.79
2018-12-29T08:57:49.835Z,3.82
2018-12-29T08:58:49.806Z,3.79
2018-12-29T08:59:49.778Z,3.90
2018-12-29T09:00:49.749Z,3.88
2018-12-29T09:01:49.718Z,3.97
2018-12-29T09:02:49.689Z,3.89
2018-12-29T09:03:49.661Z,3.90
2018-12-29T09:04:49.633Z,3.90
2018-12-29T09:05:49.602Z,3.86
2018-12-29T09:06:49.574Z,3.85
2018-12-29T09:07:49.544Z,3.86
2018-12-29T09:08:49.517Z,3.88
2018-12-29T09:09:49.489Z,3.86
2018-12-29T09:10:49.457Z,3.85
2018-12-29T09:11:49.428Z,3.76
2018-12-29T09:12:49.400Z,3.76
2018-12-29T09:13:49.370Z,3.72
2018-12-29T09:14:49.341Z,3.76
2018-12-29T09:15:49.318Z,3.79
2018-12-29T09:16:49.284Z,3.86
2018-12-29T09:17:50.005Z,3.83
2018-12-29T09:18:49.796Z,3.72
2018-12-29T09:19:49.196Z,3.88
2018-12-29T09:20:49.168Z,3.88
2018-12-29T09:21:49.138Z,3.89
2018-12-29T09:22:49.109Z,3.89
2018-12-29T09:23:49.080Z,3.89
2018-12-29T09:24:49.052Z,4.03
2018-12-29T09:25:49.021Z,3.80
2018-12-29T09:26:48.994Z,3.67
2018-12-29T09:27:49.025Z,3.62
2018-12-29T09:28:48.935Z,3.57
2018-12-29T09:29:48.906Z,3.57
2018-12-29T09:30:48.877Z,3.65
2018-12-29T09:31:48.848Z,3.52
2018-12-29T09:32:48.819Z,3.57
2018-12-29T09:33:48.789Z,3.53
2018-12-29T09:34:48.761Z,3.54
2018-12-29T09:35:48.731Z,3.42
2018-12-29T09:36:48.703Z,3.28
2018-12-29T09:37:48.675Z,3.25
2018-12-29T09:38:48.644Z,3.30
2018-12-29T09:39:48.615Z,3.30
2018-12-29T09:40:48.586Z,3.21
2018-12-29T09:41:48.556Z,3.18
2018-12-29T09:42:48.528Z,3.20
2018-12-29T09:43:48.500Z,3.25
2018-12-29T09:44:48.469Z,3.18
2018-12-29T09:45:48.439Z,3.25
2018-12-29T09:46:48.410Z,3.36
2018-12-29T09:47:48.381Z,3.43
2018-12-29T09:48:48.352Z,3.34
2018-12-29T09:49:48.321Z,3.23
2018-12-29T09:50:48.292Z,3.13
2018-12-29T09:51:48.263Z,3.10
2018-12-29T09:52:48.237Z,3.20
2018-12-29T09:53:48.206Z,3.20
2018-12-29T09:54:48.175Z,3.21
2018-12-29T09:55:48.896Z,3.31
2018-12-29T09:56:48.122Z,3.23
2018-12-29T09:57:48.086Z,3.16
2018-12-29T09:58:48.057Z,3.18
2018-12-29T09:59:48.028Z,3.23
2018-12-29T10:00:47.998Z,3.18
2018-12-29T10:01:47.968Z,3.13
2018-12-29T10:02:47.938Z,3.20
2018-12-29T10:03:47.909Z,3.15
2018-12-29T10:04:47.882Z,3.15
2018-12-29T10:05:47.853Z,3.03
2018-12-29T10:06:47.821Z,2.98
2018-12-29T10:07:47.791Z,2.92
2018-12-29T10:08:47.768Z,2.92
2018-12-29T10:09:47.733Z,2.91
2018-12-29T10:10:47.702Z,2.94
2018-12-29T10:11:47.673Z,2.88
2018-12-29T10:12:47.644Z,2.79
2018-12-29T10:13:47.613Z,2.77
2018-12-29T10:14:47.583Z,2.71
2018-12-29T10:15:47.556Z,2.70
2018-12-29T10:16:47.524Z,2.74
2018-12-29T10:17:47.494Z,2.74
2018-12-29T10:18:47.465Z,2.63
2018-12-29T10:19:47.436Z,2.69
2018-12-29T10:20:47.406Z,2.70
2018-12-29T10:21:47.379Z,2.69
2018-12-29T10:22:47.347Z,2.74
2018-12-29T10:23:47.316Z,2.74
2018-12-29T10:24:47.289Z,2.73
2018-12-29T10:25:47.256Z,2.71
2018-12-29T10:26:47.226Z,2.64
2018-12-29T10:27:47.209Z,2.69
2018-12-29T10:28:47.243Z,2.69
2018-12-29T10:29:47.143Z,2.73
2018-12-29T10:30:47.110Z,2.73
2018-12-29T10:31:47.084Z,2.73
2018-12-29T10:32:47.048Z,2.76
2018-12-29T10:33:47.019Z,2.69
2018-12-29T10:34:46.988Z,2.71
2018-12-29T10:35:46.959Z,2.74
2018-12-29T10:36:46.929Z,2.82
2018-12-29T10:37:46.899Z,2.92
2018-12-29T10:38:46.868Z,2.95
2018-12-29T10:39:46.838Z,2.89
2018-12-29T10:40:46.809Z,2.91
2018-12-29T10:41:46.779Z,2.87
2018-12-29T10:42:46.750Z,2.89
2018-12-29T10:43:46.720Z,2.87
2018-12-29T10:44:46.691Z,2.89
2018-12-29T10:45:46.686Z,2.92
2018-12-29T10:46:46.636Z,2.84
2018-12-29T10:47:46.601Z,2.79
2018-12-29T10:48:46.572Z,2.87
2018-12-29T10:49:46.541Z,2.85
2018-12-29T10:50:46.512Z,2.98
2018-12-29T10:51:46.482Z,3.03
2018-12-29T10:52:46.453Z,2.89
2018-12-29T10:53:46.425Z,2.89
2018-12-29T10:54:46.402Z,2.73
2018-12-29T10:55:46.364Z,2.84
2018-12-29T10:56:46.335Z,2.88
2018-12-29T10:57:46.308Z,2.89
2018-12-29T10:58:46.275Z,2.91
2018-12-29T10:59:47.747Z,2.97
2018-12-29T11:00:46.216Z,3.00
2018-12-29T11:01:46.186Z,2.92
2018-12-29T11:02:46.156Z,2.88
2018-12-29T11:03:46.130Z,2.97
2018-12-29T11:04:46.098Z,2.97
2018-12-29T11:05:47.569Z,3.03
2018-12-29T11:06:46.038Z,2.97
2018-12-29T11:07:46.009Z,2.98
2018-12-29T11:08:45.979Z,3.06
2018-12-29T11:09:45.949Z,2.98
2018-12-29T11:10:45.920Z,2.97
2018-12-29T11:11:46.641Z,2.85
2018-12-29T11:12:45.861Z,2.82
2018-12-29T11:13:45.832Z,3.00
2018-12-29T11:14:45.802Z,2.92
2018-12-29T11:15:45.772Z,3.02
2018-12-29T11:16:45.744Z,3.02
2018-12-29T11:17:45.716Z,2.98
2018-12-29T11:18:45.684Z,2.89
2018-12-29T11:19:45.655Z,2.91
2018-12-29T11:20:45.625Z,2.95
2018-12-29T11:21:45.596Z,3.00
2018-12-29T11:22:45.566Z,2.94
2018-12-29T11:23:45.537Z,3.02
2018-12-29T11:24:45.508Z,2.98
2018-12-29T11:25:45.492Z,3.06
2018-12-29T11:26:45.448Z,3.06
2018-12-29T11:27:45.418Z,3.05
2018-12-29T11:28:46.032Z,3.03
2018-12-29T11:29:45.360Z,2.89
2018-12-29T11:30:45.330Z,3.00
2018-12-29T11:31:45.309Z,2.77
2018-12-29T11:32:45.271Z,2.77
2018-12-29T11:33:45.991Z,2.70
2018-12-29T11:34:45.211Z,2.84
2018-12-29T11:35:45.182Z,2.74
2018-12-29T11:36:45.163Z,2.74
2018-12-29T11:37:45.122Z,2.76
2018-12-29T11:38:45.094Z,2.89
2018-12-29T11:39:45.064Z,2.79
2018-12-29T11:40:45.035Z,2.88
2018-12-29T11:41:45.005Z,2.81
2018-12-29T11:42:44.975Z,2.74
2018-12-29T11:43:44.946Z,2.73
2018-12-29T11:44:47.919Z,2.76
2018-12-29T11:45:44.886Z,2.56
2018-12-29T11:46:44.856Z,2.40
2018-12-29T11:47:49.793Z,2.48
2018-12-29T11:48:44.798Z,2.37
2018-12-29T11:49:44.767Z,2.34
2018-12-29T11:50:45.488Z,2.49
2018-12-29T11:51:44.711Z,2.41
2018-12-29T11:52:44.678Z,2.38
2018-12-29T11:53:44.647Z,2.49
2018-12-29T11:54:44.618Z,2.46
2018-12-29T11:55:44.588Z,2.49
2018-12-29T11:56:44.558Z,2.41
2018-12-29T11:57:44.529Z,2.52
2018-12-29T11:58:44.501Z,2.58
2018-12-29T11:59:44.468Z,2.64
2018-12-29T12:00:44.440Z,2.61
2018-12-29T12:01:44.409Z,2.66
2018-12-29T12:02:44.380Z,2.63
2018-12-29T12:03:44.350Z,2.49
2018-12-29T12:04:44.319Z,2.52
2018-12-29T12:05:44.288Z,2.58
2018-12-29T12:06:44.262Z,2.55
2018-12-29T12:07:44.229Z,2.69
2018-12-29T12:08:44.199Z,2.59
2018-12-29T12:09:44.169Z,2.66
2018-12-29T12:10:44.139Z,2.71
2018-12-29T12:11:44.110Z,2.63
2018-12-29T12:12:44.080Z,2.64
2018-12-29T12:13:44.051Z,2.73
2018-12-29T12:14:44.021Z,2.74
2018-12-29T12:15:43.990Z,2.66
2018-12-29T12:16:43.964Z,2.73
2018-12-29T12:17:44.681Z,2.71
2018-12-29T12:18:43.901Z,2.67
2018-12-29T12:19:43.872Z,2.77
2018-12-29T12:20:43.841Z,2.76
2018-12-29T12:21:43.811Z,2.79
2018-12-29T12:22:43.783Z,2.79
2018-12-29T12:23:43.755Z,2.71
2018-12-29T12:24:43.723Z,2.77
2018-12-29T12:25:43.693Z,2.76
2018-12-29T12:26:43.662Z,2.67
2018-12-29T12:27:43.633Z,2.58
2018-12-29T12:28:43.607Z,2.56
2018-12-29T12:29:43.573Z,2.63
2018-12-29T12:30:43.545Z,2.73
2018-12-29T12:31:43.515Z,2.79
2018-12-29T12:32:43.486Z,2.82
2018-12-29T12:33:43.458Z,2.76
2018-12-29T12:34:43.425Z,2.89
2018-12-29T12:35:43.396Z,2.89
2018-12-29T12:36:43.366Z,2.87
2018-12-29T12:37:43.336Z,2.97
2018-12-29T12:38:43.312Z,2.87
2018-12-29T12:39:43.278Z,2.89
2018-12-29T12:40:43.401Z,2.79
2018-12-29T12:41:43.217Z,2.87
2018-12-29T12:42:43.191Z,2.76
2018-12-29T12:43:43.159Z,2.71
2018-12-29T12:44:43.130Z,2.67
2018-12-29T12:45:43.098Z,2.71
2018-12-29T12:46:43.068Z,2.82
2018-12-29T12:47:43.039Z,2.87
2018-12-29T12:48:43.010Z,2.85
2018-12-29T12:49:42.986Z,2.91
2018-12-29T12:50:42.950Z,2.89
2018-12-29T12:51:42.921Z,2.88
2018-12-29T12:52:42.891Z,2.91
2018-12-29T12:53:42.861Z,3.00
2018-12-29T12:54:42.832Z,2.95
2018-12-29T12:55:42.805Z,2.70
2018-12-29T12:56:42.772Z,2.63
2018-12-29T12:57:42.742Z,2.70
2018-12-29T12:58:42.713Z,2.79
2018-12-29T12:59:43.436Z,2.88
2018-12-29T13:00:42.653Z,2.94
2018-12-29T13:01:42.624Z,2.79
2018-12-29T13:02:42.594Z,2.81
2018-12-29T13:03:42.565Z,2.67
2018-12-29T13:04:42.536Z,2.79
2018-12-29T13:05:42.505Z,2.76
2018-12-29T13:06:42.475Z,2.71
2018-12-29T13:07:42.446Z,2.73
2018-12-29T13:08:42.417Z,2.74
2018-12-29T13:09:42.386Z,2.66
2018-12-29T13:10:42.357Z,2.69
2018-12-29T13:11:42.328Z,2.74
2018-12-29T13:12:42.298Z,2.74
2018-12-29T13:13:42.271Z,2.55
2018-12-29T13:14:42.238Z,2.64
2018-12-29T13:15:42.209Z,2.67
2018-12-29T13:16:42.179Z,2.64
2018-12-29T13:17:42.156Z,2.66